Meteo Giornale » Osservazioni meteo Stati Uniti (USA) » Morrisville-Stowe State
ore: 13:54 - Osservazioni Meteo Morrisville-Stowe State
Lat. 44° 32' N Lon. 72° 36' W Alt. 223 metri s.l.m.
25 °C
Sereno
Temp. 24 Ore
11 °C
25 °C
Nord
5.5 Km/h
Dew point 13 °C
Umidità 47 %
Visibilità 10 Km
Il sole sorge alle ore 06:13
Il sole tramonta alle ore 19:27
| Data e Ora | Cielo e Fenomeni | T °C | DP °C | Um. % | Pres. hPa | Vis. km | Vento km/h | |
|---|---|---|---|---|---|---|---|---|
| Oggi h: 13:54 | Sereno | 25 | 13 | 47 | 1017 | 10 | N 5.5 | |
| Oggi h: 12:54 | Poco Nuvoloso | 23 | 12 | 49 | 1017 | 10 | N 5.5 | |
| Oggi h: 11:54 | Coperto | 22 | 13 | 56 | 1018 | 10 | N 0 | |
| Oggi h: 10:54 | Coperto | 19 | 13 | 68 | 1018 | 10 | N 0 | |
| Oggi h: 09:54 | Nuvoloso | 17 | 13 | 77 | 1018 | 10 | N 0 | |
| Oggi h: 08:54 | Coperto | 14 | 13 | 93 | 1018 | 10 | N 0 | |
| Oggi h: 07:54 | Coperto | 13 | 12 | 93 | 1019 | 10 | N 0 | |
| Oggi h: 06:54 | Coperto | 12 | 12 | 100 | 1018 | 10 | N 0 | |
| Oggi h: 05:54 | Coperto | 12 | 12 | 100 | 1018 | 10 | N 0 | |
| Oggi h: 04:54 | Coperto | 12 | 12 | 100 | 1018 | 10 | N 0 | |
| Oggi h: 03:54 | Molto Nuvoloso | 11 | 11 | 100 | 1018 | 10 | N 5.5 | |
| Oggi h: 02:54 | Poco Nuvoloso | 11 | 11 | 100 | 1018 | 10 | N 0 | |
| Oggi h: 01:54 | Foschia | 11 | 11 | 100 | 1019 | 10 | N 5.5 | |
| Oggi h: 00:54 | Molto Nuvoloso | 11 | 11 | 100 | 1019 | 10 | N 0 | |
| Ieri h: 23:54 | Molto Nuvoloso | 12 | 12 | 100 | 1019 | 10 | N 0 | |
| Ieri h: 22:54 | Nuvoloso | 11 | 11 | 100 | 1019 | 10 | N 0 | |
| Ieri h: 21:54 | Sereno | 12 | 12 | 100 | 1019 | 10 | N 0 | |
| Ieri h: 20:54 | Sereno | 13 | 13 | 100 | 1019 | 10 | N 0 | |
| Ieri h: 19:54 | Sereno | 15 | 13 | 87 | 1018 | 10 | N 0 | |
| Ieri h: 18:54 | Sereno | 17 | 14 | 82 | 1018 | 10 | N 0 | |
| Ieri h: 17:54 | Sereno | 23 | 9 | 40 | 1018 | 10 | N 11.1 | |
| Ieri h: 16:54 | Sereno | 24 | 10 | 41 | 1018 | 10 | NO 7.4 | |
| Ieri h: 15:54 | Sereno | 24 | 11 | 43 | 1019 | 10 | N 11.1 | |
| Ieri h: 14:54 | Sereno | 23 | 11 | 46 | 1019 | 10 | N 5.5 | |



